Time;durP1;ratioP1;P1;durP2;ratioP2;P2;SDS_P1;SDS_P2;PMS_P1;PMS_P2;Temp;Humidity;BMP_temperature;BMP_pressure;BME280_temperature;BME280_humidity;BME280_pressure;Samples;Min_cycle;Max_cycle;Signal;HPM_P1;HPM_P2
2023/11/22 12:28:46;;;;;;;6.77;5.70;;;;;;;7.84;50.38;99780.63;6567738;29;20243;-84
2023/11/22 12:32:09;;;;;;;6.30;5.53;;;;;;;8.42;49.57;99832.47;6682454;29;20229;-85
2023/11/22 12:35:38;;;;;;;5.63;4.90;;;;;;;8.23;49.27;99838.97;6708805;29;20223;-85
2023/11/22 12:39:12;;;;;;;5.73;5.13;;;;;;;8.23;50.00;99824.69;6708694;29;20669;-85
2023/11/22 12:42:34;;;;;;;6.33;5.70;;;;;;;8.95;48.23;99833.63;6707402;29;20219;-85
2023/11/22 12:46:06;;;;;;;6.00;5.27;;;;;;;8.46;47.27;99763.91;6701738;29;20208;-84
2023/11/22 12:49:28;;;;;;;7.30;5.77;;;;;;;7.98;48.76;99818.41;6708035;29;20226;-83
2023/11/22 12:52:49;;;;;;;6.43;5.30;;;;;;;6.94;50.57;99783.06;6689671;29;20224;-83
2023/11/22 12:56:11;;;;;;;6.40;5.47;;;;;;;7.50;49.63;99790.56;6682810;29;20220;-83
2023/11/22 12:59:33;;;;;;;5.60;5.00;;;;;;;7.62;48.70;99749.88;6681219;29;20443;-83
2023/11/22 13:03:05;;;;;;;5.60;5.07;;;;;;;7.62;48.39;99770.47;6690565;29;20240;-84
2023/11/22 13:06:26;;;;;;;5.77;5.27;;;;;;;7.75;47.67;99664.34;6701338;29;20910;-84
2023/11/22 13:09:48;;;;;;;6.30;5.70;;;;;;;8.32;47.66;99792.28;6702583;29;20826;-85
2023/11/22 13:13:09;;;;;;;7.70;5.70;;;;;;;8.56;47.31;99727.81;6692197;29;20221;-84
2023/11/22 13:16:32;;;;;;;5.73;5.23;;;;;;;9.37;46.92;99810.81;6678380;29;20206;-84
2023/11/22 13:19:55;;;;;;;6.10;5.17;;;;;;;9.34;45.84;99810.34;6684167;29;20247;-84
2023/11/22 13:23:17;;;;;;;6.17;5.57;;;;;;;8.42;47.45;99762.59;6708266;29;20302;-84
2023/11/22 13:26:39;;;;;;;6.63;6.00;;;;;;;7.97;48.54;99824.78;6711798;29;20235;-87
2023/11/22 13:30:00;;;;;;;6.23;5.60;;;;;;;8.33;47.89;99852.25;6716353;29;20281;-88
2023/11/22 13:33:22;;;;;;;8.93;5.50;;;;;;;8.08;47.74;99805.66;6714740;29;20810;-87
2023/11/22 13:36:45;;;;;;;7.40;6.10;;;;;;;8.81;46.55;99839.69;6708195;29;20691;-87
2023/11/22 13:40:11;;;;;;;6.17;5.23;;;;;;;8.45;47.54;99838.34;6711904;29;20268;-88
2023/11/22 13:43:34;;;;;;;5.60;5.10;;;;;;;8.87;47.13;99822.88;6694880;29;20302;-87
2023/11/22 13:46:56;;;;;;;7.70;6.30;;;;;;;8.25;47.04;99715.22;6692164;29;20232;-87
2023/11/22 13:50:27;;;;;;;6.97;5.60;;;;;;;8.77;45.91;99729.97;6713618;29;20571;-87
2023/11/22 13:54:05;;;;;;;9.20;6.10;;;;;;;8.38;48.05;99817.66;6718162;29;20218;-87
2023/11/22 13:57:26;;;;;;;6.60;5.90;;;;;;;6.84;48.92;99722.53;6719603;29;20257;-88
2023/11/22 14:00:49;;;;;;;5.87;5.33;;;;;;;8.68;48.12;99835.81;6730326;29;20862;-87
2023/11/22 14:04:17;;;;;;;7.20;6.40;;;;;;;8.38;46.76;99705.63;6713962;29;20348;-90
2023/11/22 14:07:39;;;;;;;6.70;5.80;;;;;;;8.81;46.25;99815.50;6704456;29;20231;-87
2023/11/22 14:11:03;;;;;;;6.67;5.97;;;;;;;7.76;47.94;99836.94;6720099;29;20229;-87
2023/11/22 14:14:24;;;;;;;7.27;6.27;;;;;;;7.95;47.20;99791.06;6698905;29;20214;-88
2023/11/22 14:17:49;;;;;;;6.63;5.93;;;;;;;7.83;47.30;99787.00;6713538;29;20306;-89
2023/11/22 14:21:11;;;;;;;6.87;5.87;;;;;;;7.93;48.55;99833.31;6714163;29;20240;-87
2023/11/22 14:24:36;;;;;;;6.97;5.83;;;;;;;7.94;47.61;99732.97;6715662;29;20231;-89
2023/11/22 14:27:59;;;;;;;6.27;5.63;;;;;;;8.34;47.08;99803.72;6712062;29;20322;-89
2023/11/22 14:31:21;;;;;;;8.47;5.87;;;;;;;8.75;46.51;99828.75;6713620;29;20254;-91
2023/11/22 14:34:44;;;;;;;7.03;5.77;;;;;;;8.29;46.52;99770.28;6703604;29;20289;-87
2023/11/22 14:38:06;;;;;;;6.10;5.50;;;;;;;8.82;46.06;99792.09;6692016;29;20216;-86
2023/11/22 14:41:31;;;;;;;7.60;6.23;;;;;;;9.56;46.06;99869.66;6691741;29;20229;-88
2023/11/22 14:44:55;;;;;;;6.93;6.10;;;;;;;9.07;45.96;99822.34;6717983;29;20598;-87
2023/11/22 14:48:20;;;;;;;7.47;6.00;;;;;;;9.45;46.18;99869.19;6710972;29;20236;-87
2023/11/22 14:51:42;;;;;;;8.03;6.67;;;;;;;9.66;45.23;99864.06;6707023;29;20232;-86
2023/11/22 14:55:11;;;;;;;7.70;6.53;;;;;;;8.80;44.88;99854.16;6707401;29;20215;-89
2023/11/22 14:58:34;;;;;;;7.83;5.90;;;;;;;8.21;46.33;99792.63;6707567;29;20206;-87
2023/11/22 15:01:59;;;;;;;6.33;5.73;;;;;;;8.32;46.45;99859.47;6710139;29;20252;-87
2023/11/22 15:05:22;;;;;;;6.90;6.20;;;;;;;8.46;46.96;99836.47;6709241;29;20255;-87
2023/11/22 15:08:47;;;;;;;7.73;6.40;;;;;;;7.97;46.96;99813.19;6709873;29;20731;-87
2023/11/22 15:12:09;;;;;;;9.30;6.63;;;;;;;8.40;46.51;99845.19;6704395;29;20227;-86
2023/11/22 15:15:31;;;;;;;7.00;6.27;;;;;;;8.82;46.40;99851.25;6692463;29;20478;-88
2023/11/22 15:18:56;;;;;;;6.73;5.87;;;;;;;8.17;47.06;99834.22;6695586;29;20210;-86
2023/11/22 15:22:18;;;;;;;6.57;5.73;;;;;;;8.14;46.69;99769.25;6704584;29;20238;-88
2023/11/22 15:25:49;;;;;;;7.63;6.37;;;;;;;8.70;46.37;99845.41;6697703;29;20213;-92
2023/11/22 15:29:12;;;;;;;6.30;5.70;;;;;;;8.50;46.21;99848.59;6712407;29;20327;-89
2023/11/22 15:33:31;;;;;;;7.00;5.77;;;;;;;8.14;47.13;99858.72;6719291;29;20254;-89
2023/11/22 15:36:55;;;;;;;8.83;7.53;;;;;;;8.43;47.05;99867.22;6707447;29;20214;-90
2023/11/22 15:40:20;;;;;;;7.00;6.33;;;;;;;8.08;46.94;99870.13;6699594;29;20742;-88
2023/11/22 15:43:42;;;;;;;6.87;5.80;;;;;;;7.68;47.96;99797.53;6696623;29;20217;-89
2023/11/22 15:47:04;;;;;;;7.50;5.60;;;;;;;8.22;47.58;99872.22;6707216;29;20238;-87
2023/11/22 15:50:27;;;;;;;6.27;5.63;;;;;;;8.08;48.11;99878.16;6703163;29;20243;-88
2023/11/22 15:53:50;;;;;;;7.77;5.93;;;;;;;7.88;47.47;99862.50;6691755;29;20269;-91
2023/11/22 15:57:12;;;;;;;6.17;5.57;;;;;;;7.87;47.71;99853.63;6691076;29;20592;-88
2023/11/22 16:00:34;;;;;;;6.43;5.70;;;;;;;7.91;48.32;99840.69;6690226;29;20246;-88
2023/11/22 16:04:26;;;;;;;9.83;6.00;;;;;;;8.03;47.04;99901.16;6708337;29;20208;-88
2023/11/22 16:07:47;;;;;;;6.13;5.53;;;;;;;8.33;47.36;99901.47;6707992;29;20781;-86
2023/11/22 16:11:11;;;;;;;6.83;6.13;;;;;;;7.77;47.73;99835.97;6688241;29;20242;-86
2023/11/22 16:14:33;;;;;;;6.60;5.67;;;;;;;8.01;47.35;99870.94;6703106;29;20219;-87
2023/11/22 16:17:56;;;;;;;9.27;6.40;;;;;;;8.70;47.24;99893.78;6713351;29;20796;-90
2023/11/22 16:21:19;;;;;;;7.70;6.70;;;;;;;8.44;46.46;99905.69;6716889;29;20239;-84
2023/11/22 16:24:41;;;;;;;8.60;7.80;;;;;;;8.45;46.93;99854.47;6704587;29;20254;-87
2023/11/22 16:28:04;;;;;;;7.20;6.27;;;;;;;8.32;47.02;99899.75;6703959;29;20226;-87
2023/11/22 16:31:26;;;;;;;6.27;5.53;;;;;;;7.46;45.79;99752.50;6711091;29;20246;-88
2023/11/22 16:34:47;;;;;;;6.60;6.00;;;;;;;8.54;44.97;99883.00;6713761;29;20212;-86
2023/11/22 16:38:09;;;;;;;6.70;6.00;;;;;;;7.51;45.08;99835.16;6727772;29;20214;-87
2023/11/22 16:41:30;;;;;;;9.47;6.77;;;;;;;8.31;44.87;99865.03;6713948;29;20231;-86
2023/11/22 16:44:53;;;;;;;8.17;6.17;;;;;;;8.42;45.31;99841.34;6713163;29;20211;-86
2023/11/22 16:48:15;;;;;;;9.67;8.20;;;;;;;8.91;45.05;99934.47;6707229;29;20248;-85
2023/11/22 16:51:37;;;;;;;6.90;6.20;;;;;;;8.57;44.63;99923.00;6711620;29;20292;-87
2023/11/22 16:54:59;;;;;;;6.43;5.63;;;;;;;8.62;45.02;99906.38;6706251;29;20273;-87
2023/11/22 16:58:21;;;;;;;8.50;7.33;;;;;;;8.82;44.94;99930.09;6735994;29;20315;-87
2023/11/22 17:01:44;;;;;;;9.83;8.20;;;;;;;8.73;44.39;99896.13;6720672;29;20663;-87
2023/11/22 17:05:07;;;;;;;6.57;5.60;;;;;;;7.65;44.69;99829.19;6724905;29;20451;-87
2023/11/22 17:08:28;;;;;;;7.00;6.30;;;;;;;7.89;43.78;99835.50;6718156;29;20236;-88
2023/11/22 17:11:50;;;;;;;8.17;7.30;;;;;;;8.33;44.46;99847.72;6729427;29;20231;-87
2023/11/22 17:15:11;;;;;;;10.00;7.87;;;;;;;8.26;44.69;99845.88;6728838;29;20211;-87
2023/11/22 17:18:34;;;;;;;9.73;7.50;;;;;;;8.96;45.18;99942.06;6720987;29;20648;-88
2023/11/22 17:21:56;;;;;;;9.30;7.57;;;;;;;8.23;44.27;99847.03;6713564;29;20242;-87
2023/11/22 17:25:19;;;;;;;8.13;7.23;;;;;;;8.57;43.95;99871.09;6724875;29;20204;-87
2023/11/22 17:28:40;;;;;;;7.30;6.53;;;;;;;9.05;44.13;99941.88;6730177;29;20240;-89
2023/11/22 17:32:02;;;;;;;10.77;7.50;;;;;;;8.60;43.80;99909.22;6723072;29;20232;-87
2023/11/22 17:35:25;;;;;;;7.47;6.73;;;;;;;8.49;44.42;99895.28;6731591;29;20239;-87
2023/11/22 17:38:47;;;;;;;6.80;6.17;;;;;;;8.05;44.73;99929.53;6719813;29;20210;-88
2023/11/22 17:42:08;;;;;;;6.90;6.20;;;;;;;7.79;45.28;99876.91;6708717;29;20236;-87
2023/11/22 17:45:30;;;;;;;6.80;6.20;;;;;;;8.14;45.78;99976.09;6716924;29;20217;-87
2023/11/22 17:48:51;;;;;;;7.97;6.27;;;;;;;8.17;45.37;99927.38;6730689;29;20241;-90
2023/11/22 17:52:14;;;;;;;7.30;6.60;;;;;;;8.24;45.22;99939.22;6731029;29;20324;-88
2023/11/22 17:55:36;;;;;;;10.30;9.30;;;;;;;8.75;44.67;99977.50;6728254;29;20228;-88
2023/11/22 17:58:58;;;;;;;8.00;7.20;;;;;;;8.20;45.74;99972.78;6726434;29;20240;-87
2023/11/22 18:02:19;;;;;;;10.00;8.70;;;;;;;7.67;46.64;99988.25;6721470;29;20227;-89
2023/11/22 18:05:41;;;;;;;9.07;8.27;;;;;;;7.85;46.95;100005.97;6738989;29;20206;-87
2023/11/22 18:09:09;;;;;;;10.30;8.53;;;;;;;8.05;46.97;99942.97;6741781;29;20294;-87
2023/11/22 18:12:32;;;;;;;7.93;7.00;;;;;;;7.84;47.88;99915.69;6707877;29;20699;-88
2023/11/22 18:15:53;;;;;;;7.27;6.47;;;;;;;8.53;47.88;99993.38;6724121;29;20238;-88
2023/11/22 18:19:15;;;;;;;7.53;6.73;;;;;;;8.51;46.51;99965.81;6718601;29;20229;-87
2023/11/22 18:22:37;;;;;;;7.63;6.80;;;;;;;9.11;45.13;99974.31;6722694;29;20211;-87
2023/11/22 18:26:01;;;;;;;8.40;7.40;;;;;;;8.84;46.51;99975.66;6728879;29;20211;-85
2023/11/22 18:29:23;;;;;;;9.10;7.60;;;;;;;8.95;46.46;99968.09;6713572;29;20242;-88
2023/11/22 18:32:44;;;;;;;11.70;7.80;;;;;;;9.01;46.75;99977.38;6727157;29;20236;-88
2023/11/22 18:36:07;;;;;;;8.17;7.00;;;;;;;8.78;45.96;100001.34;6719475;29;20277;-87
2023/11/22 18:39:29;;;;;;;10.63;7.27;;;;;;;8.60;46.50;99960.31;6712539;29;20246;-89
2023/11/22 18:42:52;;;;;;;20.80;11.10;;;;;;;8.40;46.75;99920.44;6718046;29;20219;-87
2023/11/22 18:46:13;;;;;;;9.23;8.03;;;;;;;8.09;47.51;99893.31;6719768;29;20216;-87
2023/11/22 18:49:35;;;;;;;8.20;6.63;;;;;;;8.79;47.11;99927.72;6712774;29;20262;-85
2023/11/22 18:52:56;;;;;;;8.10;7.10;;;;;;;9.15;46.86;99959.53;6718578;29;20217;-84
2023/11/22 18:56:20;;;;;;;8.23;6.97;;;;;;;9.11;45.57;99895.47;6719662;29;20211;-86
2023/11/22 18:59:45;;;;;;;9.73;8.07;;;;;;;9.25;46.73;99941.38;6719612;29;20265;-85
2023/11/22 19:03:07;;;;;;;14.60;10.13;;;;;;;9.32;46.82;99930.75;6718382;29;20222;-86
2023/11/22 19:06:29;;;;;;;10.77;8.33;;;;;;;9.52;46.81;99948.25;6716192;29;20230;-87
2023/11/22 19:09:50;;;;;;;11.83;8.57;;;;;;;9.43;46.22;99952.81;6714914;29;20246;-87
2023/11/22 19:13:12;;;;;;;10.70;7.90;;;;;;;9.57;46.71;99960.16;6723770;29;20242;-89
2023/11/22 19:16:35;;;;;;;9.30;7.77;;;;;;;9.42;47.13;99971.81;6712104;29;20239;-88
2023/11/22 19:19:57;;;;;;;8.90;7.70;;;;;;;9.65;46.31;99960.19;6719224;29;20259;-87
2023/11/22 19:23:19;;;;;;;9.37;7.63;;;;;;;9.43;45.85;99909.72;6720550;29;20211;-88
2023/11/22 19:26:40;;;;;;;11.07;8.67;;;;;;;9.26;46.24;99921.53;6713322;29;20274;-87
2023/11/22 19:30:04;;;;;;;10.87;8.23;;;;;;;9.12;46.51;99961.72;6720254;29;20245;-85
2023/11/22 19:33:27;;;;;;;13.97;10.50;;;;;;;9.04;47.61;99981.38;6714611;29;20222;-89
2023/11/22 19:36:48;;;;;;;10.27;9.17;;;;;;;9.09;46.75;99967.47;6712274;29;20210;-86
2023/11/22 19:40:10;;;;;;;13.03;10.53;;;;;;;8.77;46.85;99956.66;6714820;29;20235;-87
2023/11/22 19:43:36;;;;;;;10.10;8.37;;;;;;;8.93;46.87;99876.81;6721442;29;20221;-87
2023/11/22 19:46:58;;;;;;;11.60;9.80;;;;;;;9.18;45.66;99959.22;6715644;29;20211;-87
2023/11/22 19:50:22;;;;;;;10.33;9.03;;;;;;;9.22;46.24;99940.88;6732326;29;20231;-86
2023/11/22 19:53:44;;;;;;;10.60;9.50;;;;;;;8.76;45.64;99900.34;6721527;29;20356;-90
2023/11/22 19:57:06;;;;;;;11.50;10.13;;;;;;;8.71;46.27;99910.78;6728392;29;20224;-88
2023/11/22 20:00:28;;;;;;;12.83;10.73;;;;;;;8.93;46.41;99980.88;6727933;29;20301;-86
2023/11/22 20:03:50;;;;;;;11.57;10.37;;;;;;;9.16;45.94;99981.91;6721043;29;20227;-88
2023/11/22 20:07:44;;;;;;;22.43;14.73;;;;;;;9.15;46.65;99985.63;6721640;29;20221;-87
2023/11/22 20:11:11;;;;;;;12.83;11.27;;;;;;;9.22;46.40;99997.38;6698731;29;20229;-87
2023/11/22 20:14:44;;;;;;;13.00;9.73;;;;;;;9.00;46.80;99981.88;6717059;29;20248;-88
2023/11/22 20:18:09;;;;;;;12.37;9.80;;;;;;;8.49;46.40;99890.72;6703814;29;20220;-90
2023/11/22 20:21:44;;;;;;;10.83;9.37;;;;;;;8.76;45.87;99930.78;6711968;29;20238;-88
2023/11/22 20:25:25;;;;;;;10.77;9.03;;;;;;;8.47;45.82;99972.53;6717149;29;20237;-87
2023/11/22 20:28:52;;;;;;;9.87;8.73;;;;;;;8.59;45.49;99938.97;6713114;29;20276;-88
2023/11/22 20:32:14;;;;;;;14.47;10.73;;;;;;;8.53;45.55;99899.31;6731292;29;20233;-89
2023/11/22 20:36:18;;;;;;;13.13;9.27;;;;;;;8.71;46.46;99943.88;6707645;29;20204;-87
2023/11/22 20:39:43;;;;;;;10.90;9.07;;;;;;;8.71;46.61;99946.56;6715827;29;20228;-88
2023/11/22 20:43:06;;;;;;;12.30;10.13;;;;;;;8.79;46.46;99924.22;6708822;29;20291;-88
2023/11/22 20:46:27;;;;;;;10.30;9.13;;;;;;;8.88;45.85;99953.63;6722618;29;20201;-88
2023/11/22 20:49:49;;;;;;;9.77;8.77;;;;;;;8.35;46.04;99880.63;6722689;29;20245;-88
2023/11/22 20:53:13;;;;;;;10.70;9.53;;;;;;;8.71;46.20;99937.66;6706213;29;20214;-88
2023/11/22 20:56:35;;;;;;;11.30;8.57;;;;;;;8.30;46.71;99900.97;6721536;29;20244;-87
2023/11/22 20:59:58;;;;;;;10.60;9.10;;;;;;;8.62;46.84;99933.25;6732753;29;20260;-87
2023/11/22 21:03:20;;;;;;;12.13;10.10;;;;;;;8.45;47.67;99931.53;6710902;29;20678;-87
2023/11/22 21:06:41;;;;;;;14.17;11.17;;;;;;;8.33;47.22;99930.16;6716806;29;20216;-87
2023/11/22 21:10:03;;;;;;;11.53;10.33;;;;;;;8.60;47.34;99960.31;6712583;29;20237;-87
2023/11/22 21:13:26;;;;;;;10.73;8.20;;;;;;;8.74;46.61;99922.03;6721948;29;20207;-88
2023/11/22 21:16:49;;;;;;;13.27;11.57;;;;;;;8.22;47.89;99895.53;6722651;29;20211;-87
2023/11/22 21:20:12;;;;;;;10.80;8.83;;;;;;;7.96;47.62;99873.28;6712284;29;20238;-89
2023/11/22 21:23:33;;;;;;;10.83;9.47;;;;;;;7.99;46.38;99835.34;6723621;29;20206;-89
2023/11/22 21:26:55;;;;;;;10.60;9.50;;;;;;;8.38;47.45;99917.91;6724818;29;20277;-87
2023/11/22 21:30:17;;;;;;;9.70;8.77;;;;;;;8.61;46.55;99940.47;6718793;29;20238;-88
2023/11/22 21:33:40;;;;;;;11.87;9.63;;;;;;;8.64;46.71;99942.00;6717416;29;20224;-88
2023/11/22 21:37:14;;;;;;;10.20;9.10;;;;;;;8.61;46.76;99900.16;6721886;29;20213;-87
2023/11/22 21:40:41;;;;;;;10.80;8.93;;;;;;;8.69;46.31;99919.00;6722179;29;20242;-87
2023/11/22 21:44:03;;;;;;;12.60;11.27;;;;;;;8.58;47.51;99921.16;6716446;29;20199;-90
2023/11/22 21:47:25;;;;;;;12.80;10.90;;;;;;;8.62;47.45;99933.25;6712268;29;20211;-91
2023/11/22 21:50:48;;;;;;;10.23;8.83;;;;;;;8.46;47.55;99898.28;6728308;29;20238;-89
2023/11/22 21:54:10;;;;;;;15.10;9.23;;;;;;;7.81;48.58;99862.31;6722081;29;20223;-90
2023/11/22 21:57:32;;;;;;;10.17;9.03;;;;;;;8.19;48.14;99899.38;6736588;29;20213;-91
2023/11/22 22:00:54;;;;;;;11.03;9.47;;;;;;;7.96;48.79;99875.97;6724071;29;20227;-88
2023/11/22 22:04:17;;;;;;;14.40;12.90;;;;;;;8.17;48.13;99906.75;6730277;29;20442;-89
2023/11/22 22:07:40;;;;;;;11.93;10.00;;;;;;;7.83;48.66;99908.63;6725191;29;20195;-90
2023/11/22 22:11:02;;;;;;;11.10;9.17;;;;;;;7.61;49.91;99908.34;6725626;29;20234;-89
2023/11/22 22:14:24;;;;;;;21.67;14.63;;;;;;;7.64;49.87;99916.06;6708317;29;20214;-90
2023/11/22 22:17:46;;;;;;;10.53;9.43;;;;;;;7.05;49.49;99857.88;6717038;29;20202;-91
2023/11/22 22:21:08;;;;;;;10.60;9.50;;;;;;;7.02;50.30;99852.00;6714965;29;20266;-91
2023/11/22 22:24:30;;;;;;;12.83;9.63;;;;;;;7.11;49.88;99834.94;6703993;29;20585;-91
2023/11/22 22:27:52;;;;;;;12.27;10.17;;;;;;;6.86;51.85;99871.50;6702858;29;20216;-90
2023/11/22 22:31:14;;;;;;;14.53;11.93;;;;;;;6.60;51.91;99869.75;6718096;29;20237;-91
2023/11/22 22:34:35;;;;;;;13.80;11.33;;;;;;;6.56;54.16;99904.06;6704684;29;20258;-92
2023/11/22 22:37:57;;;;;;;20.67;16.17;;;;;;;6.31;53.17;99882.53;6703559;29;20226;-89
2023/11/22 22:41:21;;;;;;;15.07;12.37;;;;;;;5.69;54.90;99831.63;6715611;29;20231;-91
2023/11/22 22:44:44;;;;;;;13.23;11.83;;;;;;;5.98;55.70;99920.66;6723635;29;20238;-90
2023/11/22 22:48:06;;;;;;;15.77;12.63;;;;;;;6.19;55.36;99886.44;6723293;29;20233;-91
2023/11/22 22:51:28;;;;;;;15.47;13.80;;;;;;;6.43;54.21;99868.75;6706003;29;20238;-91
2023/11/22 22:54:53;;;;;;;13.03;10.90;;;;;;;6.76;53.21;99916.28;6725903;29;20210;-91
2023/11/22 23:02:36;;;;;;;14.53;11.37;;;;;;;6.46;55.05;99908.63;6713453;29;20236;-90
2023/11/22 23:06:07;;;;;;;13.13;11.07;;;;;;;5.83;54.69;99813.25;6720382;29;20215;-90
2023/11/22 23:48:58;;;;;;;11.97;10.43;;;;;;;6.41;55.49;99932.34;6413408;31;20221;-90
